Time;durP1;ratioP1;P1;durP2;ratioP2;P2;SDS_P1;SDS_P2;PMS_P1;PMS_P2;Temp;Humidity;BMP_temperature;BMP_pressure;BME280_temperature;BME280_humidity;BME280_pressure;Samples;Min_cycle;Max_cycle;Signal;HPM_P1;HPM_P2
2021/04/09 00:00:05;;;;;;;16.83;10.73;;;;;;;8.70;42.77;101640.75;4856367;28;118908;-66
2021/04/09 00:02:38;;;;;;;17.10;10.02;;;;;;;8.71;42.96;101626.63;4873920;28;124708;-67
2021/04/09 00:05:10;;;;;;;17.10;10.10;;;;;;;8.70;43.06;101626.66;4873594;28;124731;-67
2021/04/09 00:07:37;;;;;;;18.23;10.25;;;;;;;8.71;43.10;101618.69;4871632;28;117938;-67
2021/04/09 00:10:08;;;;;;;18.65;10.57;;;;;;;8.70;43.21;101614.34;4871085;28;119081;-67
2021/04/09 00:12:36;;;;;;;17.98;10.27;;;;;;;8.70;43.30;101618.72;4856883;28;124644;-68
2021/04/09 00:15:05;;;;;;;16.73;10.45;;;;;;;8.70;43.26;101609.06;4873393;28;124684;-67
2021/04/09 00:17:32;;;;;;;17.02;9.75;;;;;;;8.69;42.98;101607.28;4871865;28;120525;-67
2021/04/09 00:19:58;;;;;;;16.50;10.38;;;;;;;8.70;43.07;101603.75;4873483;28;120118;-66
2021/04/09 00:22:25;;;;;;;17.88;10.88;;;;;;;8.68;43.09;101597.66;4873636;28;124302;-66
2021/04/09 00:24:52;;;;;;;17.92;10.82;;;;;;;8.68;43.27;101597.66;4873108;28;124591;-66
2021/04/09 00:27:18;;;;;;;19.55;11.07;;;;;;;8.66;43.31;101596.81;4872465;28;119829;-66
2021/04/09 00:29:45;;;;;;;20.90;11.43;;;;;;;8.67;43.47;101598.53;4871858;28;119214;-66
2021/04/09 00:32:11;;;;;;;16.38;10.80;;;;;;;8.66;43.21;101594.16;4871175;28;123997;-66
2021/04/09 00:34:38;;;;;;;17.20;9.93;;;;;;;8.65;43.41;101592.44;4856711;28;122628;-65
2021/04/09 00:37:05;;;;;;;19.88;10.73;;;;;;;8.65;43.22;101587.16;4873123;28;119503;-67
2021/04/09 00:39:32;;;;;;;19.75;10.65;;;;;;;8.65;43.25;101579.25;4866639;28;118806;-67
2021/04/09 00:41:58;;;;;;;19.63;11.55;;;;;;;8.65;43.30;101573.97;4867775;28;124869;-65
2021/04/09 00:44:25;;;;;;;20.00;10.82;;;;;;;8.65;43.70;101578.38;4872993;28;124638;-65
2021/04/09 00:46:51;;;;;;;20.38;11.30;;;;;;;8.63;43.42;101573.13;4871887;28;119128;-66
2021/04/09 00:49:18;;;;;;;16.08;10.95;;;;;;;8.63;43.37;101574.91;4884664;28;119413;-66
2021/04/09 00:51:45;;;;;;;16.25;10.75;;;;;;;8.62;43.57;101563.47;4856620;28;124126;-66
2021/04/09 00:54:12;;;;;;;20.98;11.15;;;;;;;8.63;43.61;101565.22;4868886;28;124230;-66
2021/04/09 00:56:38;;;;;;;16.38;11.23;;;;;;;8.63;43.80;101564.34;4871866;28;120377;-65
2021/04/09 00:59:05;;;;;;;17.83;10.32;;;;;;;8.65;43.37;101566.03;4873276;28;119758;-65
2021/04/09 01:01:32;;;;;;;22.60;11.02;;;;;;;8.66;43.69;101562.47;4868797;28;123758;-67
2021/04/09 01:04:00;;;;;;;19.50;10.40;;;;;;;8.66;43.70;101565.09;4855879;28;122756;-66
2021/04/09 01:06:27;;;;;;;18.58;10.88;;;;;;;8.66;43.52;101562.47;4872323;28;121000;-65
2021/04/09 01:08:53;;;;;;;18.10;11.20;;;;;;;8.67;43.44;101556.28;4854966;28;120720;-65
2021/04/09 01:11:20;;;;;;;17.80;10.55;;;;;;;8.67;43.40;101550.16;4872845;28;124551;-66
2021/04/09 01:13:47;;;;;;;16.80;10.90;;;;;;;8.66;43.78;101545.78;4871870;28;122626;-66
2021/04/09 01:16:27;;;;;;;18.80;11.32;;;;;;;8.66;44.03;101543.97;4873341;28;119348;-66
2021/04/09 01:19:22;;;;;;;16.55;10.60;;;;;;;8.66;44.19;101543.97;4872226;28;119243;-66
2021/04/09 01:21:56;;;;;;;17.38;10.27;;;;;;;8.67;43.76;101540.44;4856517;28;123149;-66
2021/04/09 01:24:44;;;;;;;14.57;10.18;;;;;;;8.65;43.56;101542.28;4871023;28;124002;-66
2021/04/09 01:27:41;;;;;;;15.32;9.93;;;;;;;8.62;43.54;101542.34;4872166;28;119677;-66
2021/04/09 01:30:42;;;;;;;14.63;10.48;;;;;;;8.59;43.75;101534.50;4873017;28;118878;-66
2021/04/09 01:33:10;;;;;;;19.15;10.50;;;;;;;8.60;43.85;101533.59;4849878;28;121859;-66
2021/04/09 01:35:41;;;;;;;17.40;10.38;;;;;;;8.59;44.08;101523.94;4872616;28;124107;-66
2021/04/09 01:38:09;;;;;;;15.80;10.55;;;;;;;8.59;44.00;101526.59;4872359;28;119439;-65
2021/04/09 01:40:40;;;;;;;14.23;9.85;;;;;;;8.58;44.03;101519.56;4845369;28;117783;-66
2021/04/09 01:43:12;;;;;;;15.32;9.95;;;;;;;8.58;44.40;101514.28;4863438;28;124317;-66
2021/04/09 01:45:38;;;;;;;18.00;9.88;;;;;;;8.60;44.03;101512.47;4870998;28;123938;-66
2021/04/09 01:48:08;;;;;;;20.70;10.65;;;;;;;8.61;44.17;101513.31;4858866;28;118806;-67
2021/04/09 01:50:36;;;;;;;17.13;10.23;;;;;;;8.61;44.08;101508.94;4858215;28;118356;-66
2021/04/09 01:53:03;;;;;;;17.58;9.85;;;;;;;8.63;44.03;101507.13;4855269;28;124112;-66
2021/04/09 01:55:33;;;;;;;19.55;10.43;;;;;;;8.63;43.99;101506.25;4872162;28;123619;-66
2021/04/09 01:58:01;;;;;;;16.42;9.88;;;;;;;8.63;44.09;101500.97;4853005;28;120357;-66
2021/04/09 02:00:31;;;;;;;15.95;9.95;;;;;;;8.64;43.92;101498.28;4871049;28;121048;-66
2021/04/09 02:03:00;;;;;;;16.38;9.80;;;;;;;8.63;44.35;101491.28;4871574;28;124813;-66
2021/04/09 02:05:29;;;;;;;19.05;10.55;;;;;;;8.62;44.22;101493.94;4870822;28;123160;-66
2021/04/09 02:07:57;;;;;;;15.80;11.43;;;;;;;8.63;44.06;101491.28;4884826;23;118941;-70
2021/04/09 02:10:25;;;;;;;17.88;9.82;;;;;;;8.63;43.99;101496.56;4909260;28;119591;-70
2021/04/09 02:12:53;;;;;;;15.93;9.55;;;;;;;8.63;44.36;101491.28;4879927;28;124880;-70
2021/04/09 02:15:22;;;;;;;16.77;10.23;;;;;;;8.62;44.19;101486.88;4891196;28;123095;-70
2021/04/09 02:17:50;;;;;;;15.88;9.63;;;;;;;8.62;44.22;101489.53;4907528;28;119459;-70
2021/04/09 02:20:20;;;;;;;16.67;9.35;;;;;;;8.61;44.17;101476.38;4902258;28;119344;-70
2021/04/09 02:22:49;;;;;;;15.75;9.73;;;;;;;8.60;44.35;101480.78;4889877;28;124383;-70
2021/04/09 02:25:19;;;;;;;16.55;9.57;;;;;;;8.59;44.35;101476.44;4888666;28;123084;-70
2021/04/09 02:27:48;;;;;;;22.13;9.90;;;;;;;8.57;44.33;101472.97;4890126;28;119745;-71
2021/04/09 02:30:17;;;;;;;15.45;9.13;;;;;;;8.54;44.25;101465.13;4886279;28;119722;-70
2021/04/09 02:32:44;;;;;;;13.80;8.50;;;;;;;8.52;44.44;101466.94;4888629;28;124831;-70
2021/04/09 02:35:13;;;;;;;13.60;8.43;;;;;;;8.52;44.79;101453.72;4889409;28;123690;-69
2021/04/09 02:37:43;;;;;;;16.10;9.38;;;;;;;8.52;44.51;101459.88;4863661;28;118895;-70
2021/04/09 02:40:14;;;;;;;14.95;8.88;;;;;;;8.51;44.42;101454.63;4890627;28;118242;-70
2021/04/09 02:42:45;;;;;;;16.15;8.52;;;;;;;8.50;44.61;101455.53;4871843;28;123367;-70
2021/04/09 02:45:13;;;;;;;16.63;9.00;;;;;;;8.48;44.55;101460.00;4888517;28;123688;-70
2021/04/09 02:47:42;;;;;;;16.27;8.75;;;;;;;8.48;44.55;101454.72;4872087;28;121004;-70
2021/04/09 02:50:29;;;;;;;12.88;8.38;;;;;;;8.46;44.47;101451.25;4890200;28;119949;-70
2021/04/09 02:53:09;;;;;;;13.75;8.40;;;;;;;8.46;44.67;101451.25;4888794;28;123364;-71
2021/04/09 02:55:41;;;;;;;18.00;8.77;;;;;;;8.46;44.64;101445.97;4888022;28;123215;-70
2021/04/09 02:58:10;;;;;;;15.35;8.70;;;;;;;8.47;44.65;101437.13;4873586;28;119893;-70
2021/04/09 03:00:41;;;;;;;14.07;8.43;;;;;;;8.45;44.80;101450.38;4896483;28;119401;-70
2021/04/09 03:03:10;;;;;;;14.60;9.10;;;;;;;8.46;45.05;101445.97;4888371;28;123577;-70
2021/04/09 03:05:38;;;;;;;15.45;8.20;;;;;;;8.44;44.72;101447.75;4889427;28;124610;-71
2021/04/09 03:08:06;;;;;;;15.73;7.93;;;;;;;8.43;45.05;101443.41;4872029;28;117762;-72
2021/04/09 03:10:33;;;;;;;16.10;8.45;;;;;;;8.42;45.11;101439.03;4890590;28;119458;-70
2021/04/09 03:13:02;;;;;;;14.98;8.30;;;;;;;8.42;45.07;101439.03;4871685;28;122962;-70
2021/04/09 03:15:36;;;;;;;14.32;7.78;;;;;;;8.41;45.14;101437.28;4856717;28;123424;-70
2021/04/09 03:18:07;;;;;;;19.73;8.30;;;;;;;8.38;44.99;101433.81;4887635;28;118529;-70
2021/04/09 03:20:34;;;;;;;15.20;8.40;;;;;;;8.38;44.79;101438.19;4887939;28;118093;-70
2021/04/09 03:23:01;;;;;;;13.60;8.20;;;;;;;8.35;45.17;101444.44;4889593;28;123854;-70
2021/04/09 03:25:28;;;;;;;11.98;7.97;;;;;;;8.35;45.18;101440.94;4872290;28;123839;-70
2021/04/09 03:27:54;;;;;;;15.85;7.72;;;;;;;8.35;45.16;101433.88;4888483;28;119422;-70
2021/04/09 03:30:23;;;;;;;16.83;8.70;;;;;;;8.35;45.31;101439.16;4875641;28;117148;-69
2021/04/09 03:32:50;;;;;;;18.13;8.48;;;;;;;8.36;45.12;101435.63;4886366;28;124224;-69
2021/04/09 03:35:19;;;;;;;15.45;8.30;;;;;;;8.36;45.43;101434.75;4889287;28;123569;-69
2021/04/09 03:37:46;;;;;;;14.93;8.18;;;;;;;8.35;45.01;101438.31;4871983;28;120669;-69
2021/04/09 03:40:14;;;;;;;12.95;8.00;;;;;;;8.34;45.29;101428.63;4888931;28;119576;-69
2021/04/09 03:42:41;;;;;;;14.80;8.02;;;;;;;8.33;45.07;101424.28;4872509;28;123949;-71
2021/04/09 03:45:09;;;;;;;13.05;8.18;;;;;;;8.32;45.40;101420.75;4897407;28;124216;-69
2021/04/09 03:47:36;;;;;;;12.75;8.02;;;;;;;8.33;45.28;101413.72;4900975;28;119268;-69
2021/04/09 03:50:05;;;;;;;14.15;7.70;;;;;;;8.32;45.18;101423.41;4884769;28;118371;-68
2021/04/09 03:52:32;;;;;;;14.43;7.95;;;;;;;8.31;45.38;101411.13;4877869;28;122380;-69
2021/04/09 03:54:58;;;;;;;13.77;7.68;;;;;;;8.29;45.47;101418.22;4889914;28;124673;-69
2021/04/09 03:57:25;;;;;;;14.65;9.02;;;;;;;8.28;45.49;101410.34;4887750;28;119686;-69
2021/04/09 03:59:52;;;;;;;12.63;8.07;;;;;;;8.28;45.60;101410.34;4888074;28;119334;-69
2021/04/09 04:02:18;;;;;;;15.52;7.65;;;;;;;8.28;45.68;101403.28;4888894;28;123993;-69
2021/04/09 04:04:45;;;;;;;14.27;8.13;;;;;;;8.27;45.39;101398.94;4887306;28;123812;-69
2021/04/09 04:07:12;;;;;;;13.52;7.95;;;;;;;8.25;45.55;101399.84;4887706;28;119253;-69
2021/04/09 04:09:38;;;;;;;13.43;7.57;;;;;;;8.25;45.69;101406.03;4897500;28;118953;-69
2021/04/09 04:12:06;;;;;;;15.30;7.95;;;;;;;8.25;45.38;101400.75;4888582;28;123857;-69
2021/04/09 04:14:32;;;;;;;14.23;8.32;;;;;;;8.26;45.73;101402.47;4888445;28;124041;-69
2021/04/09 04:17:00;;;;;;;14.48;7.95;;;;;;;8.24;45.61;101409.53;4889926;28;118931;-69
2021/04/09 04:19:26;;;;;;;13.77;7.68;;;;;;;8.24;45.81;101399.00;4891769;28;118830;-69
2021/04/09 04:21:53;;;;;;;14.88;8.52;;;;;;;8.22;45.89;101406.09;4890110;28;124007;-69
2021/04/09 04:24:20;;;;;;;12.60;8.15;;;;;;;8.22;45.78;101406.09;4874782;28;123767;-69
2021/04/09 04:26:46;;;;;;;13.43;8.50;;;;;;;8.22;45.86;101400.81;4891950;28;120148;-69
2021/04/09 04:29:13;;;;;;;15.00;8.20;;;;;;;8.21;45.98;101398.22;4873662;28;120333;-69
2021/04/09 04:31:40;;;;;;;14.27;7.93;;;;;;;8.19;45.88;101401.75;4890998;28;124209;-69
2021/04/09 04:34:07;;;;;;;14.10;8.18;;;;;;;8.19;45.66;101401.75;4889090;28;123221;-69
2021/04/09 04:36:34;;;;;;;14.43;8.02;;;;;;;8.19;45.99;101395.59;4892503;28;119799;-69
2021/04/09 04:39:00;;;;;;;13.48;8.23;;;;;;;8.16;45.91;101390.44;4873747;28;118109;-69
2021/04/09 04:41:27;;;;;;;14.35;8.43;;;;;;;8.14;46.03;101381.69;4874242;28;123576;-69
2021/04/09 04:43:56;;;;;;;20.08;8.35;;;;;;;8.12;45.89;101386.13;4892607;28;124079;-69
2021/04/09 04:46:24;;;;;;;16.55;8.52;;;;;;;8.10;45.86;101386.19;4892067;28;119476;-69
2021/04/09 04:48:51;;;;;;;17.75;8.68;;;;;;;8.09;45.82;101394.97;4888471;28;119277;-69
2021/04/09 04:51:19;;;;;;;18.20;8.45;;;;;;;8.08;46.26;101397.66;4873393;28;124329;-69
2021/04/09 04:53:45;;;;;;;13.63;8.52;;;;;;;8.06;46.26;101388.91;4873385;28;122978;-69
2021/04/09 04:56:12;;;;;;;15.55;8.80;;;;;;;8.06;46.34;101388.91;4890111;28;119128;-69
2021/04/09 04:58:38;;;;;;;15.55;9.00;;;;;;;8.04;46.30;101385.44;4890311;28;119467;-69
2021/04/09 05:01:05;;;;;;;14.65;8.65;;;;;;;8.02;46.18;101392.53;4891413;28;123789;-69
2021/04/09 05:03:31;;;;;;;16.75;9.38;;;;;;;7.99;46.10;101383.81;4889625;28;122979;-69
2021/04/09 05:05:58;;;;;;;15.63;8.88;;;;;;;7.98;46.53;101387.34;4891333;28;118808;-69
2021/04/09 05:08:25;;;;;;;15.32;8.50;;;;;;;7.98;46.17;101387.34;4891543;28;119646;-69
2021/04/09 05:10:51;;;;;;;17.50;9.30;;;;;;;7.97;46.54;101384.75;4891343;28;123735;-69
2021/04/09 05:13:18;;;;;;;18.02;8.88;;;;;;;7.95;46.29;101376.88;4891303;28;123959;-69
2021/04/09 05:15:45;;;;;;;17.05;8.88;;;;;;;7.94;46.33;101375.13;4891116;28;120627;-69
2021/04/09 05:18:11;;;;;;;17.77;9.77;;;;;;;7.94;46.65;101375.13;4891184;28;121144;-69
2021/04/09 05:20:38;;;;;;;17.83;8.88;;;;;;;7.93;46.42;101373.41;4891472;28;124199;-69
2021/04/09 05:23:04;;;;;;;19.08;9.70;;;;;;;7.93;46.45;101373.41;4857680;28;123028;-69
2021/04/09 05:25:31;;;;;;;18.50;9.48;;;;;;;7.93;46.52;101373.41;4891700;28;119626;-69
2021/04/09 05:27:58;;;;;;;16.17;9.20;;;;;;;7.94;46.77;101383.03;4901919;28;119638;-69
2021/04/09 05:30:24;;;;;;;14.95;9.38;;;;;;;7.95;46.72;101371.59;4891114;28;124234;-69
2021/04/09 05:32:52;;;;;;;17.67;9.25;;;;;;;7.94;46.48;101364.59;4891661;28;124389;-69
2021/04/09 05:35:21;;;;;;;16.25;9.60;;;;;;;7.95;46.78;101366.31;4890811;28;119098;-69
2021/04/09 05:37:48;;;;;;;16.67;10.05;;;;;;;7.95;46.91;101371.59;4873648;28;119196;-69
2021/04/09 05:40:20;;;;;;;14.18;9.13;;;;;;;7.97;46.87;101364.50;4888126;28;124918;-69
2021/04/09 05:42:54;;;;;;;20.20;9.77;;;;;;;7.98;46.93;101366.22;4890781;28;124125;-69
2021/04/09 05:45:20;;;;;;;17.38;9.60;;;;;;;8.01;47.25;101359.19;4890246;28;119269;-69
2021/04/09 05:48:01;;;;;;;18.10;9.93;;;;;;;8.04;46.83;101364.34;4887952;28;118044;-69
2021/04/09 05:50:27;;;;;;;14.63;9.13;;;;;;;8.06;46.92;101362.53;4889421;28;125472;-69
2021/04/09 05:52:54;;;;;;;18.40;9.93;;;;;;;8.08;47.08;101364.25;4871811;28;122937;-69
2021/04/09 05:55:21;;;;;;;16.65;9.50;;;;;;;8.12;47.18;101362.41;4891168;28;119261;-69
2021/04/09 05:57:48;;;;;;;17.05;9.90;;;;;;;8.14;47.20;101373.78;4872476;28;119469;-69
2021/04/09 06:00:15;;;;;;;16.10;9.70;;;;;;;8.18;47.45;101372.78;4888339;28;124067;-70
2021/04/09 06:02:41;;;;;;;16.95;9.85;;;;;;;8.22;47.05;101369.16;4889155;28;123829;-69
2021/04/09 06:05:10;;;;;;;16.98;10.35;;;;;;;8.28;47.15;101370.75;4890417;28;120116;-69
2021/04/09 06:07:37;;;;;;;16.10;9.95;;;;;;;8.32;47.22;101367.97;4875173;28;119866;-69
2021/04/09 06:10:05;;;;;;;16.77;9.80;;;;;;;8.37;47.50;101371.38;4891711;28;124273;-69
2021/04/09 06:12:32;;;;;;;20.02;10.18;;;;;;;8.45;47.50;101380.88;4892853;28;124333;-70
2021/04/09 06:14:59;;;;;;;17.30;9.63;;;;;;;8.50;47.35;101379.84;4875242;28;119095;-69
2021/04/09 06:17:26;;;;;;;17.40;10.05;;;;;;;8.55;47.06;101377.06;4890214;28;119694;-69
2021/04/09 06:19:52;;;;;;;15.15;9.82;;;;;;;8.61;47.41;101371.63;4871800;28;123127;-68
2021/04/09 06:22:19;;;;;;;18.63;10.00;;;;;;;8.67;47.37;101370.59;4872825;28;124160;-69
2021/04/09 06:24:45;;;;;;;15.82;10.48;;;;;;;8.72;47.61;101369.56;4890207;28;119426;-69
2021/04/09 06:27:12;;;;;;;15.27;9.63;;;;;;;8.79;47.33;101369.38;4890358;28;119460;-69
2021/04/09 06:29:39;;;;;;;17.67;10.05;;;;;;;8.85;47.40;101369.19;4889640;28;124061;-69
2021/04/09 06:32:09;;;;;;;14.18;9.70;;;;;;;8.91;47.31;101369.00;4888193;28;125049;-69
2021/04/09 06:34:36;;;;;;;16.02;9.75;;;;;;;8.97;47.41;101368.84;4889308;28;119242;-69
2021/04/09 06:37:02;;;;;;;15.23;9.77;;;;;;;9.04;46.98;101370.38;4890474;28;118659;-69
2021/04/09 06:39:29;;;;;;;16.38;9.98;;;;;;;9.13;47.21;101363.94;4868812;28;123798;-70
2021/04/09 06:41:56;;;;;;;15.27;10.48;;;;;;;9.22;47.24;101368.09;4897183;28;123813;-71
2021/04/09 06:44:23;;;;;;;17.33;10.18;;;;;;;9.30;47.40;101366.06;4880348;28;120688;-70
2021/04/09 06:46:49;;;;;;;16.65;9.98;;;;;;;9.39;47.15;101365.78;4893792;28;119060;-70
2021/04/09 06:49:16;;;;;;;15.60;9.90;;;;;;;9.50;47.09;101358.34;4881988;28;123156;-70
2021/04/09 06:51:45;;;;;;;18.38;9.43;;;;;;;9.57;47.06;101359.03;4885476;28;123792;-70
2021/04/09 06:54:14;;;;;;;21.38;10.32;;;;;;;9.66;47.01;101363.13;4885413;28;121155;-70
2021/04/09 06:56:42;;;;;;;17.35;10.15;;;;;;;9.76;46.91;101364.59;4882047;28;120545;-70
2021/04/09 06:59:24;;;;;;;17.02;9.32;;;;;;;9.84;46.89;101359.88;4883189;28;126477;-70
2021/04/09 07:01:52;;;;;;;14.00;8.98;;;;;;;9.94;46.69;101366.63;4883770;28;124084;-70
2021/04/09 07:04:18;;;;;;;15.18;9.45;;;;;;;9.99;46.57;101349.72;4888753;28;120071;-70
2021/04/09 07:06:45;;;;;;;17.70;9.68;;;;;;;10.06;46.66;101351.22;4871578;28;117920;-70
2021/04/09 07:09:13;;;;;;;15.93;9.48;;;;;;;10.13;46.68;101347.44;4886098;28;123681;-70
2021/04/09 07:11:47;;;;;;;17.02;9.52;;;;;;;10.21;46.49;101345.41;4864666;28;122620;-70
2021/04/09 07:14:13;;;;;;;15.52;9.55;;;;;;;10.30;46.30;101350.41;4881967;28;119509;-70
2021/04/09 07:16:56;;;;;;;15.25;9.32;;;;;;;10.41;46.47;101351.78;4870976;28;117760;-70
2021/04/09 07:19:33;;;;;;;14.25;9.27;;;;;;;10.53;46.77;101346.06;4884814;28;124838;-70
2021/04/09 07:22:03;;;;;;;16.45;9.23;;;;;;;10.65;46.34;101345.59;4887803;28;124253;-70
2021/04/09 07:24:31;;;;;;;16.15;8.50;;;;;;;10.78;46.27;101339.84;4887249;28;119182;-70
2021/04/09 07:27:00;;;;;;;16.00;8.80;;;;;;;10.88;46.08;101346.50;4886585;28;119167;-70
2021/04/09 07:29:39;;;;;;;15.55;9.40;;;;;;;10.98;45.81;101337.28;4886941;28;123163;-72
2021/04/09 07:32:06;;;;;;;16.08;8.77;;;;;;;11.10;46.00;101339.44;4886624;28;124615;-70
2021/04/09 07:34:48;;;;;;;16.02;8.65;;;;;;;11.23;45.78;101336.31;4888794;28;119283;-70
2021/04/09 07:37:16;;;;;;;14.13;8.30;;;;;;;11.34;45.63;101334.09;4882616;28;119266;-70
2021/04/09 07:39:43;;;;;;;13.68;8.35;;;;;;;11.44;45.39;101331.94;4869955;28;123486;-70
2021/04/09 07:42:12;;;;;;;11.90;8.40;;;;;;;11.55;45.59;101326.19;4871164;28;123692;-70
2021/04/09 07:44:40;;;;;;;12.95;8.18;;;;;;;11.66;45.34;101329.28;4886934;28;119779;-70
2021/04/09 07:47:11;;;;;;;12.93;7.78;;;;;;;11.79;45.03;101335.78;4889509;28;120294;-70
2021/04/09 07:49:39;;;;;;;12.82;8.02;;;;;;;11.90;44.83;101337.13;4886012;28;123973;-70
2021/04/09 07:52:15;;;;;;;11.85;7.50;;;;;;;12.01;44.64;101340.19;4885632;28;122764;-70
2021/04/09 07:54:42;;;;;;;12.95;7.78;;;;;;;12.13;44.63;101341.44;4892527;28;119386;-70
2021/04/09 07:57:27;;;;;;;12.88;7.38;;;;;;;12.25;44.74;101344.44;4891111;28;120107;-70
2021/04/09 07:59:54;;;;;;;12.30;8.10;;;;;;;12.42;44.48;101340.19;4888837;28;124762;-70
2021/04/09 08:02:39;;;;;;;12.48;7.57;;;;;;;12.55;44.04;101351.97;4891164;28;123144;-70
2021/04/09 08:05:06;;;;;;;12.65;7.40;;;;;;;12.66;44.00;101343.53;4889596;28;118194;-72
2021/04/09 08:07:36;;;;;;;13.38;7.15;;;;;;;12.76;43.85;101349.28;4892085;28;118839;-70
2021/04/09 08:10:08;;;;;;;10.82;7.00;;;;;;;12.85;43.71;101343.53;4890728;28;124346;-70
2021/04/09 08:12:37;;;;;;;10.50;6.88;;;;;;;12.94;43.48;101343.13;4890495;28;122919;-69
2021/04/09 08:15:14;;;;;;;9.50;6.82;;;;;;;13.03;42.97;101340.03;4890771;28;119266;-70
2021/04/09 08:17:41;;;;;;;11.82;6.72;;;;;;;13.10;42.89;101342.38;4891305;28;119023;-70
2021/04/09 08:20:13;;;;;;;8.10;6.03;;;;;;;13.16;42.83;101336.75;4889602;28;123245;-70
2021/04/09 08:22:41;;;;;;;13.45;6.40;;;;;;;13.24;43.06;101339.91;4889171;28;123874;-70
2021/04/09 08:25:09;;;;;;;10.82;6.15;;;;;;;13.34;42.58;101335.91;4892109;28;119973;-70
2021/04/09 08:27:37;;;;;;;9.52;6.43;;;;;;;13.42;42.68;101343.50;4887556;28;119013;-70
2021/04/09 08:30:05;;;;;;;9.45;5.80;;;;;;;13.51;42.41;101342.22;4890874;28;123344;-70
2021/04/09 08:32:32;;;;;;;10.68;6.15;;;;;;;13.56;42.20;101341.03;4874719;28;123261;-70
2021/04/09 08:35:00;;;;;;;8.35;5.78;;;;;;;13.62;42.26;101339.88;4891860;28;120419;-70
2021/04/09 08:37:28;;;;;;;12.10;6.10;;;;;;;13.73;42.28;101340.22;4873433;28;119679;-70
2021/04/09 08:39:55;;;;;;;9.57;6.00;;;;;;;13.83;42.22;101345.91;4888355;28;123333;-71
2021/04/09 08:42:22;;;;;;;9.60;5.25;;;;;;;13.94;41.98;101332.06;4878341;28;124183;-70
2021/04/09 08:44:49;;;;;;;9.60;5.82;;;;;;;14.02;41.58;101337.84;4875720;28;118130;-71
2021/04/09 08:47:18;;;;;;;8.70;5.30;;;;;;;14.08;41.71;101348.19;4891066;28;118745;-70
2021/04/09 08:49:45;;;;;;;8.40;5.47;;;;;;;14.13;41.41;101351.47;4883476;28;124728;-70
2021/04/09 08:52:14;;;;;;;11.32;5.70;;;;;;;14.18;41.24;101344.13;4875408;28;123154;-70
2021/04/09 08:54:55;;;;;;;9.18;4.80;;;;;;;14.23;40.90;101343.88;4892481;28;119488;-71
2021/04/09 08:57:33;;;;;;;8.55;5.50;;;;;;;14.28;41.21;101354.25;4891401;28;119021;-70
2021/04/09 09:00:10;;;;;;;11.70;5.75;;;;;;;14.32;41.19;101356.72;4879987;28;124540;-70
2021/04/09 09:02:51;;;;;;;7.88;4.57;;;;;;;14.40;41.19;101343.81;4888967;28;122893;-70
2021/04/09 09:05:23;;;;;;;8.10;5.45;;;;;;;14.44;40.74;101349.84;4881398;28;118872;-70
2021/04/09 09:07:51;;;;;;;7.90;5.15;;;;;;;14.50;40.80;101341.53;4874176;28;118661;-70
2021/04/09 09:10:23;;;;;;;9.55;4.90;;;;;;;14.53;40.51;101349.38;4891613;28;124472;-70
2021/04/09 09:13:03;;;;;;;8.23;4.85;;;;;;;14.57;40.79;101340.28;4889492;28;124272;-70
2021/04/09 09:15:45;;;;;;;7.32;4.20;;;;;;;14.64;40.55;101345.31;4873538;28;119000;-70
2021/04/09 09:18:27;;;;;;;6.65;4.50;;;;;;;14.72;40.71;101343.09;4874156;28;119205;-70
2021/04/09 09:21:12;;;;;;;6.25;4.18;;;;;;;14.76;40.67;101349.97;4892124;28;123980;-70
2021/04/09 09:23:57;;;;;;;8.48;4.65;;;;;;;14.82;40.56;101349.63;4889821;28;123554;-70
2021/04/09 09:26:28;;;;;;;7.25;4.47;;;;;;;14.85;40.25;101354.81;4874097;28;119377;-69
2021/04/09 09:29:19;;;;;;;6.18;4.22;;;;;;;14.85;40.40;101344.13;4878524;28;119265;-70
2021/04/09 09:32:06;;;;;;;7.60;4.53;;;;;;;14.91;40.40;101354.44;4889653;28;124537;-71
2021/04/09 09:34:40;;;;;;;8.75;4.40;;;;;;;14.96;40.60;101336.41;4888818;28;123632;-70
2021/04/09 09:37:27;;;;;;;5.45;4.13;;;;;;;15.06;40.66;101335.88;4887242;28;119597;-70
2021/04/09 09:40:01;;;;;;;5.50;3.87;;;;;;;15.14;40.37;101338.97;4889541;28;118973;-70
2021/04/09 09:42:28;;;;;;;6.13;3.80;;;;;;;15.22;40.55;101342.09;4868413;28;124561;-70
2021/04/09 09:45:00;;;;;;;6.20;3.78;;;;;;;15.30;40.26;101339.84;4885395;28;123560;-70
2021/04/09 09:47:31;;;;;;;5.82;3.72;;;;;;;15.37;39.94;101338.53;4883348;28;119382;-71
2021/04/09 09:50:13;;;;;;;5.38;3.33;;;;;;;15.47;40.03;101346.03;4883533;28;118708;-70
2021/04/09 09:52:53;;;;;;;4.63;3.30;;;;;;;15.55;39.82;101341.09;4881760;28;123706;-70
2021/04/09 09:55:24;;;;;;;6.30;4.00;;;;;;;15.61;39.67;101335.38;4867996;28;123106;-70
2021/04/09 09:58:17;;;;;;;3.72;3.20;;;;;;;15.63;39.74;101333.47;4881043;28;119006;-69
2021/04/09 10:01:06;;;;;;;5.78;3.20;;;;;;;15.71;40.00;101328.56;4884767;28;118209;-70
2021/04/09 10:03:37;;;;;;;6.20;3.35;;;;;;;15.82;39.92;101324.44;4884858;28;124080;-69
2021/04/09 10:06:08;;;;;;;4.75;3.45;;;;;;;15.90;39.94;101323.03;4874208;28;123243;-69
2021/04/09 10:08:54;;;;;;;5.18;3.10;;;;;;;16.01;40.07;101325.06;4893776;28;120139;-69
2021/04/09 10:11:23;;;;;;;4.40;3.38;;;;;;;16.11;39.80;101326.22;4896394;28;118917;-69
2021/04/09 10:13:51;;;;;;;5.10;3.55;;;;;;;16.20;39.44;101324.81;4874103;28;123154;-70
2021/04/09 10:16:19;;;;;;;7.60;3.85;;;;;;;16.27;39.57;101330.63;4883550;28;123211;-69
2021/04/09 10:18:48;;;;;;;4.10;3.20;;;;;;;16.33;39.51;101335.59;4870385;28;119475;-70
2021/04/09 10:21:18;;;;;;;6.80;3.65;;;;;;;16.39;39.51;101323.66;4864546;28;120045;-69
2021/04/09 10:23:46;;;;;;;5.57;3.47;;;;;;;16.46;39.25;101333.91;4886134;28;124174;-69
2021/04/09 10:26:14;;;;;;;5.78;2.92;;;;;;;16.50;39.15;101321.16;4887831;28;124171;-69
2021/04/09 10:28:42;;;;;;;4.68;3.20;;;;;;;16.57;39.29;101335.03;4888674;28;119713;-69
2021/04/09 10:31:16;;;;;;;5.10;3.13;;;;;;;16.60;38.93;101332.19;4888238;28;118833;-68
2021/04/09 10:33:49;;;;;;;5.95;3.40;;;;;;;16.65;38.90;101324.69;4889445;28;124334;-69
2021/04/09 10:36:18;;;;;;;5.65;3.53;;;;;;;16.69;38.92;101331.59;4889703;28;123854;-70
2021/04/09 10:38:46;;;;;;;5.43;3.90;;;;;;;16.77;39.00;101326.63;4870688;28;119986;-70
2021/04/09 10:41:33;;;;;;;5.93;3.38;;;;;;;16.83;38.89;101325.41;4880369;28;118486;-70
2021/04/09 10:44:04;;;;;;;6.97;3.67;;;;;;;16.88;38.50;101321.47;4887468;28;124890;-69
2021/04/09 10:46:39;;;;;;;5.60;3.45;;;;;;;16.90;38.49;101313.34;4888254;28;122532;-70
2021/04/09 10:49:15;;;;;;;5.85;3.33;;;;;;;16.92;38.48;101306.09;4888664;28;120282;-69
2021/04/09 10:51:47;;;;;;;6.07;3.33;;;;;;;16.96;38.23;101306.75;4888403;28;119149;-69
2021/04/09 10:54:17;;;;;;;5.20;3.38;;;;;;;16.95;38.11;101310.38;4887303;28;124178;-70
2021/04/09 10:56:51;;;;;;;4.93;3.35;;;;;;;16.91;37.79;101315.06;4887177;28;123491;-69
2021/04/09 10:59:19;;;;;;;4.65;3.15;;;;;;;16.86;38.13;101307.34;4870787;28;118062;-69
2021/04/09 11:01:46;;;;;;;4.72;3.13;;;;;;;16.80;37.95;101313.06;4888142;28;119158;-69
2021/04/09 11:04:14;;;;;;;6.88;3.20;;;;;;;16.75;37.95;101307.13;4886785;28;124750;-69
2021/04/09 11:06:57;;;;;;;5.13;3.03;;;;;;;16.69;37.95;101305.72;4887634;28;124749;-70
2021/04/09 11:09:47;;;;;;;4.20;2.67;;;;;;;16.65;38.12;101303.31;4871271;28;119888;-70
2021/04/09 11:12:17;;;;;;;4.25;3.03;;;;;;;16.66;38.01;101294.34;4887877;28;121409;-69
2021/04/09 11:14:44;;;;;;;5.22;3.00;;;;;;;16.65;38.21;101303.31;4872578;28;125001;-70
2021/04/09 11:17:29;;;;;;;5.85;3.28;;;;;;;16.67;37.95;101291.56;4888642;28;124094;-70
2021/04/09 11:19:58;;;;;;;6.65;3.17;;;;;;;16.75;38.49;101293.75;4887871;28;119610;-70
2021/04/09 11:22:27;;;;;;;4.75;2.97;;;;;;;16.86;38.66;101293.97;4888246;28;118825;-70
2021/04/09 11:25:00;;;;;;;5.03;2.90;;;;;;;16.95;37.78;101294.31;4888432;28;124377;-70
2021/04/09 11:27:31;;;;;;;4.40;2.90;;;;;;;16.99;37.70;101290.47;4873771;28;122907;-70